createdAt,value
2019-04-10T00:01:17.286Z,49.27
2019-04-10T00:02:22.451Z,49.77
2019-04-10T00:03:32.961Z,51.00
2019-04-10T00:04:32.288Z,50.67
2019-04-10T00:05:36.720Z,51.45
2019-04-10T00:06:41.424Z,49.13
2019-04-10T00:07:45.891Z,48.23
2019-04-10T00:08:50.561Z,50.30
2019-04-10T00:09:55.131Z,51.02
2019-04-10T00:11:00.395Z,51.35
2019-04-10T00:12:05.922Z,50.23
2019-04-10T00:13:10.142Z,50.70
2019-04-10T00:14:14.306Z,48.95
2019-04-10T00:15:18.840Z,49.90
2019-04-10T00:16:24.370Z,49.90
2019-04-10T00:17:29.163Z,49.73
2019-04-10T00:18:33.819Z,50.65
2019-04-10T00:19:37.989Z,49.98
2019-04-10T00:20:42.686Z,50.05
2019-04-10T00:21:47.350Z,51.25
2019-04-10T00:22:51.342Z,51.95
2019-04-10T00:23:55.719Z,52.08
2019-04-10T00:25:00.151Z,51.48
2019-04-10T00:26:04.130Z,51.98
2019-04-10T00:27:08.268Z,50.75
2019-04-10T00:28:12.620Z,52.60
2019-04-10T00:29:16.721Z,50.08
2019-04-10T00:30:20.830Z,52.03
2019-04-10T00:31:26.267Z,51.80
2019-04-10T00:32:30.671Z,52.10
2019-04-10T00:33:34.893Z,51.10
2019-04-10T00:34:40.043Z,51.15
2019-04-10T00:35:43.983Z,50.30
2019-04-10T00:36:47.836Z,50.80
2019-04-10T00:37:53.345Z,51.18
2019-04-10T00:38:58.029Z,50.95
2019-04-10T00:40:03.348Z,51.63
2019-04-10T00:41:08.034Z,52.30
2019-04-10T00:42:12.829Z,51.18
2019-04-10T00:43:17.023Z,52.05
2019-04-10T00:44:21.614Z,52.40
2019-04-10T00:45:25.750Z,52.08
2019-04-10T00:46:30.438Z,51.45
2019-04-10T00:47:35.147Z,50.90
2019-04-10T00:48:39.778Z,52.73
2019-04-10T00:49:44.155Z,50.85
2019-04-10T00:50:48.777Z,51.60
2019-04-10T00:51:53.121Z,49.88
2019-04-10T00:52:58.751Z,50.23
2019-04-10T00:54:02.731Z,51.23
2019-04-10T00:55:07.802Z,51.25
2019-04-10T00:56:12.485Z,49.25
2019-04-10T00:57:17.015Z,50.20
2019-04-10T00:58:22.530Z,50.65
2019-04-10T00:59:26.886Z,50.58
2019-04-10T01:00:30.980Z,49.75
2019-04-10T01:01:36.141Z,51.05
2019-04-10T01:02:41.441Z,51.13
2019-04-10T01:03:48.143Z,51.58
2019-04-10T01:04:52.971Z,51.63
2019-04-10T01:05:57.630Z,50.55
2019-04-10T01:07:02.249Z,51.10
2019-04-10T01:08:06.733Z,53.40
2019-04-10T01:09:11.215Z,53.05
2019-04-10T01:10:15.899Z,51.65
2019-04-10T03:19:25.536Z,57.10
2019-04-10T03:20:30.061Z,57.45
2019-04-10T03:21:34.072Z,57.13
2019-04-10T03:22:38.257Z,57.88
2019-04-10T03:23:42.670Z,57.73
2019-04-10T03:24:46.974Z,58.15
2019-04-10T03:25:51.476Z,58.40
2019-04-10T03:26:56.200Z,55.60
2019-04-10T03:28:00.865Z,55.92
2019-04-10T03:29:05.399Z,56.13
2019-04-10T03:30:10.900Z,54.45
2019-04-10T03:31:15.935Z,55.17
2019-04-10T03:32:52.510Z,54.27
2019-04-10T03:34:19.273Z,54.67
2019-04-10T03:35:30.446Z,52.88
2019-04-10T03:36:40.102Z,54.65
2019-04-10T03:37:44.670Z,55.35
2019-04-10T03:38:57.750Z,55.23
2019-04-10T03:39:55.266Z,54.55
2019-04-10T03:40:59.832Z,54.10
2019-04-10T03:42:04.395Z,56.28
2019-04-10T03:43:08.504Z,55.78
2019-04-10T03:44:12.484Z,54.03
2019-04-10T03:45:16.744Z,55.45
2019-04-10T03:46:21.494Z,58.15
2019-04-10T03:47:25.379Z,54.67
2019-04-10T03:48:29.476Z,56.40
2019-04-10T03:49:33.937Z,57.23
2019-04-10T03:50:39.515Z,56.88
2019-04-10T03:51:45.002Z,56.37
2019-04-10T03:52:49.611Z,55.12
2019-04-10T03:53:54.239Z,55.90
2019-04-10T03:54:58.710Z,53.87
2019-04-10T03:56:02.725Z,54.27
2019-04-10T03:57:07.134Z,56.00
2019-04-10T03:58:11.832Z,54.90
2019-04-10T03:59:16.226Z,55.45
2019-04-10T04:00:20.990Z,56.70
2019-04-10T04:01:25.271Z,56.98
2019-04-10T04:02:29.488Z,56.23
2019-04-10T04:03:33.680Z,56.08
2019-04-10T04:04:37.779Z,55.43
2019-04-10T04:05:42.565Z,56.33
2019-04-10T04:06:46.762Z,57.05
2019-04-10T04:07:50.967Z,58.10
2019-04-10T04:09:06.697Z,56.00
2019-04-10T04:10:01.041Z,55.85
2019-04-10T04:11:05.256Z,57.43
2019-04-10T04:12:10.530Z,56.35
2019-04-10T04:13:15.306Z,58.55
2019-04-10T04:14:19.993Z,53.70
2019-04-10T04:15:24.308Z,53.58
2019-04-10T04:16:28.496Z,53.38
2019-04-10T04:17:32.582Z,53.30
2019-04-10T04:18:37.456Z,53.17
2019-04-10T04:19:42.162Z,52.75
2019-04-10T04:20:46.256Z,51.25
2019-04-10T04:21:50.519Z,53.78
2019-04-10T04:22:54.888Z,53.38
2019-04-10T04:23:59.409Z,52.15
2019-04-10T04:25:04.489Z,50.30
2019-04-10T04:26:09.024Z,51.65
2019-04-10T04:27:13.256Z,51.35
2019-04-10T04:28:17.446Z,52.75
2019-04-10T04:29:22.636Z,51.30
2019-04-10T04:30:26.881Z,50.83
2019-04-10T04:31:31.238Z,50.67
2019-04-10T04:32:35.100Z,52.40
2019-04-10T04:33:39.344Z,50.43
2019-04-10T04:34:43.743Z,50.85
2019-04-10T04:35:47.598Z,53.80
2019-04-10T04:36:51.732Z,52.40
2019-04-10T04:37:55.731Z,52.88
2019-04-10T04:39:00.019Z,53.95
2019-04-10T04:40:05.936Z,53.15
2019-04-10T04:41:09.793Z,53.23
2019-04-10T04:42:14.907Z,51.85
2019-04-10T04:43:18.787Z,52.98
2019-04-10T04:44:22.882Z,52.95
2019-04-10T04:45:27.819Z,53.00
2019-04-10T04:46:32.438Z,50.80
2019-04-10T04:47:36.955Z,52.08
2019-04-10T04:48:41.424Z,51.53
2019-04-10T04:49:46.745Z,52.03
2019-04-10T04:50:52.222Z,53.08
2019-04-10T04:51:56.305Z,53.90
2019-04-10T04:53:00.474Z,53.23
2019-04-10T04:54:06.599Z,53.08
2019-04-10T04:55:10.714Z,53.00
2019-04-10T04:56:15.736Z,54.75
2019-04-10T04:57:20.485Z,52.83
2019-04-10T04:58:24.706Z,54.50
2019-04-10T04:59:28.876Z,54.45
2019-04-10T05:00:32.720Z,52.27
2019-04-10T05:01:38.394Z,52.13
2019-04-10T05:02:42.701Z,53.13
2019-04-10T05:03:46.995Z,53.73
2019-04-10T05:04:51.717Z,52.60
2019-04-10T05:05:56.212Z,52.30
2019-04-10T05:07:00.718Z,50.17
2019-04-10T05:08:06.856Z,51.77
2019-04-10T05:09:11.252Z,50.40
2019-04-10T05:10:15.532Z,51.35
2019-04-10T05:11:20.520Z,52.62
2019-04-10T05:12:25.541Z,51.25
2019-04-10T05:13:31.186Z,51.68
2019-04-10T05:14:35.719Z,52.73
2019-04-10T05:15:40.838Z,51.15
2019-04-10T05:16:45.711Z,51.58
2019-04-10T05:17:49.633Z,51.00
2019-04-10T05:18:54.764Z,49.23
2019-04-10T05:19:59.104Z,49.98
2019-04-10T05:21:03.446Z,49.88
2019-04-10T05:22:08.048Z,48.08
2019-04-10T05:23:12.307Z,49.77
2019-04-10T05:24:16.407Z,50.92
2019-04-10T05:25:21.112Z,49.80
2019-04-10T05:26:25.730Z,49.18
2019-04-10T05:27:30.928Z,47.10
2019-04-10T05:28:36.105Z,49.38
2019-04-10T05:29:40.883Z,48.20
2019-04-10T05:30:45.319Z,49.50
2019-04-10T05:31:49.431Z,48.15
2019-04-10T05:32:54.151Z,48.42
2019-04-10T05:33:58.412Z,48.90
2019-04-10T05:35:05.190Z,48.78
2019-04-10T05:36:08.955Z,47.95
2019-04-10T05:37:13.576Z,47.40
2019-04-10T05:38:18.728Z,47.93
2019-04-10T05:39:22.990Z,48.40
2019-04-10T05:40:28.031Z,45.38
2019-04-10T05:41:31.909Z,47.88
2019-04-10T05:42:37.399Z,47.78
2019-04-10T05:43:42.579Z,46.77
2019-04-10T05:44:46.559Z,48.92
2019-04-10T05:45:51.006Z,47.58
2019-04-10T05:46:54.939Z,46.83
2019-04-10T05:47:59.046Z,47.48
2019-04-10T05:49:04.453Z,49.38
2019-04-10T05:50:09.137Z,49.33
2019-04-10T05:51:12.989Z,47.55
2019-04-10T05:52:16.835Z,46.50
2019-04-10T05:53:22.552Z,48.28
2019-04-10T05:54:27.004Z,47.75
2019-04-10T05:55:31.303Z,48.45
2019-04-10T05:56:36.352Z,47.53
2019-04-10T05:57:40.932Z,46.85
2019-04-10T05:58:46.926Z,44.42
2019-04-10T05:59:50.424Z,44.45
2019-04-10T06:00:56.756Z,33.98
2019-04-10T06:02:01.124Z,30.55
2019-04-10T06:03:06.207Z,31.00
2019-04-10T06:04:11.287Z,27.90
2019-04-10T06:05:16.213Z,25.35
2019-04-10T06:06:20.840Z,26.77
2019-04-10T06:07:25.283Z,26.97
2019-04-10T06:08:29.471Z,26.70
2019-04-10T06:09:33.804Z,28.45
2019-04-10T06:10:37.995Z,28.50
2019-04-10T06:11:44.041Z,30.20
2019-04-10T06:12:48.763Z,29.52
2019-04-10T06:13:52.921Z,28.17
2019-04-10T06:14:57.256Z,28.00
2019-04-10T06:16:01.579Z,27.60
2019-04-10T06:17:06.045Z,27.07
2019-04-10T06:18:11.093Z,27.62
2019-04-10T06:19:15.869Z,26.35
2019-04-10T06:20:20.936Z,25.75
2019-04-10T06:21:25.166Z,25.57
2019-04-10T06:22:30.162Z,24.47
2019-04-10T06:23:35.797Z,24.67
2019-04-10T06:24:40.529Z,25.92
2019-04-10T06:25:45.814Z,25.35
2019-04-10T06:26:50.209Z,25.68
2019-04-10T06:27:54.349Z,31.05
2019-04-10T06:28:58.960Z,29.65
2019-04-10T06:30:03.685Z,30.25
2019-04-10T06:31:08.305Z,26.82
2019-04-10T06:32:13.520Z,26.05
2019-04-10T06:33:18.007Z,25.48
2019-04-10T06:34:22.684Z,23.77
2019-04-10T06:35:28.213Z,22.60
2019-04-10T06:36:33.421Z,24.27
2019-04-10T06:37:38.100Z,25.02
2019-04-10T06:38:43.319Z,24.12
2019-04-10T06:40:05.889Z,22.60
2019-04-10T06:41:02.069Z,20.35
2019-04-10T06:42:06.597Z,21.17
2019-04-10T06:43:10.928Z,21.95
2019-04-10T06:44:15.194Z,22.75
2019-04-10T06:45:19.864Z,22.20
2019-04-10T06:46:24.340Z,22.30
2019-04-10T06:47:28.945Z,20.65
2019-04-10T06:48:34.215Z,20.72
2019-04-10T06:49:38.669Z,19.70
2019-04-10T06:50:43.208Z,20.85
2019-04-10T06:51:49.395Z,21.35
2019-04-10T06:52:54.605Z,21.30
2019-04-10T06:54:04.934Z,21.37
2019-04-10T06:55:05.097Z,18.27
2019-04-10T06:56:09.891Z,21.00
2019-04-10T06:57:14.608Z,20.00
2019-04-10T06:58:18.771Z,20.08
2019-04-10T06:59:23.481Z,21.23
2019-04-10T07:00:28.503Z,21.42
2019-04-10T07:01:40.519Z,19.23
2019-04-10T07:02:38.854Z,20.02
2019-04-10T07:03:52.766Z,21.65
2019-04-10T07:04:54.223Z,20.00
2019-04-10T07:06:06.224Z,22.17
2019-04-10T07:07:06.275Z,20.30
2019-04-10T07:08:13.442Z,19.92
2019-04-10T07:09:15.808Z,19.73
2019-04-10T07:10:27.287Z,18.77
2019-04-10T07:11:30.481Z,19.77
2019-04-10T07:12:33.982Z,19.25
2019-04-10T07:13:39.967Z,19.40
2019-04-10T07:14:46.276Z,18.90
2019-04-10T07:15:49.789Z,20.23
2019-04-10T07:16:54.885Z,19.67
2019-04-10T07:17:58.894Z,19.10
2019-04-10T07:19:04.808Z,19.15
2019-04-10T07:20:09.556Z,18.50
2019-04-10T07:21:14.681Z,18.60
2019-04-10T07:22:18.744Z,18.23
2019-04-10T07:23:27.495Z,19.00
2019-04-10T07:24:29.224Z,18.67
2019-04-10T07:25:33.522Z,20.12
2019-04-10T07:26:42.196Z,20.02
2019-04-10T07:27:44.079Z,19.57
2019-04-10T07:28:50.078Z,20.48
2019-04-10T07:29:57.631Z,20.25
2019-04-10T07:31:04.643Z,19.48
2019-04-10T07:32:08.675Z,20.23
2019-04-10T07:33:14.841Z,19.25
2019-04-10T07:34:20.079Z,19.27
2019-04-10T07:35:23.734Z,20.88
2019-04-10T07:36:28.696Z,18.82
2019-04-10T07:37:33.967Z,18.52
2019-04-10T07:38:39.193Z,18.57
2019-04-10T07:39:44.768Z,18.77
2019-04-10T07:40:49.552Z,18.20
2019-04-10T07:41:53.710Z,20.10
2019-04-10T07:42:58.721Z,19.12
2019-04-10T07:44:03.740Z,21.97
2019-04-10T07:45:10.048Z,18.67
2019-04-10T07:46:15.203Z,18.37
2019-04-10T07:47:19.607Z,19.27
2019-04-10T07:48:25.226Z,19.30
2019-04-10T07:49:31.240Z,19.05
2019-04-10T07:50:35.091Z,19.57
2019-04-10T07:51:39.012Z,18.70
2019-04-10T07:52:43.724Z,19.35
2019-04-10T07:53:47.792Z,18.62
2019-04-10T07:54:52.422Z,18.45
2019-04-10T07:56:05.318Z,18.85
2019-04-10T07:57:02.486Z,18.52
2019-04-10T07:58:06.907Z,17.82
2019-04-10T07:59:10.988Z,18.25
2019-04-10T08:00:16.728Z,17.75
2019-04-10T08:01:20.710Z,16.93
2019-04-10T08:02:25.527Z,16.37
2019-04-10T08:03:29.459Z,16.55
2019-04-10T08:04:33.650Z,16.42
2019-04-10T08:05:37.959Z,15.30
2019-04-10T08:06:42.445Z,17.12
2019-04-10T08:07:47.301Z,16.93
2019-04-10T08:08:51.485Z,15.83
2019-04-10T08:09:55.346Z,14.23
2019-04-10T08:10:59.701Z,14.60
2019-04-10T08:12:05.049Z,16.50
2019-04-10T08:13:09.369Z,16.82
2019-04-10T08:14:13.385Z,13.45
2019-04-10T08:15:17.447Z,15.32
2019-04-10T08:16:21.753Z,16.02
2019-04-10T08:17:26.302Z,15.55
2019-04-10T08:18:31.712Z,16.45
2019-04-10T08:19:35.620Z,15.32
2019-04-10T08:20:40.326Z,15.40
2019-04-10T08:21:44.728Z,14.83
2019-04-10T08:22:49.010Z,14.60
2019-04-10T08:23:54.797Z,15.40
2019-04-10T08:24:58.765Z,15.43
2019-04-10T08:26:03.588Z,14.55
2019-04-10T08:27:07.963Z,15.30
2019-04-10T08:28:11.976Z,14.53
2019-04-10T08:29:16.210Z,15.32
2019-04-10T08:30:20.524Z,12.60
2019-04-10T08:31:25.314Z,14.83
2019-04-10T08:32:30.039Z,14.45
2019-04-10T08:33:35.018Z,14.83
2019-04-10T08:34:39.952Z,13.85
2019-04-10T08:35:45.448Z,14.43
2019-04-10T08:36:51.543Z,14.80
2019-04-10T08:37:55.422Z,13.72
2019-04-10T08:38:59.416Z,13.30
2019-04-10T08:40:03.552Z,12.63
2019-04-10T08:41:08.690Z,13.45
2019-04-10T08:42:12.831Z,12.73
2019-04-10T08:43:17.037Z,14.28
2019-04-10T08:44:22.233Z,14.28
2019-04-10T08:45:35.764Z,14.38
2019-04-10T08:46:31.831Z,14.28
2019-04-10T08:47:35.827Z,15.08
2019-04-10T08:48:39.674Z,14.90
2019-04-10T08:49:43.519Z,15.05
2019-04-10T08:50:47.520Z,15.25
2019-04-10T08:51:52.154Z,14.65
2019-04-10T08:52:56.419Z,13.43
2019-04-10T08:54:00.653Z,12.82
2019-04-10T08:55:05.984Z,13.60
2019-04-10T08:56:10.723Z,13.05
2019-04-10T08:57:14.987Z,13.70
2019-04-10T08:58:19.297Z,12.35
2019-04-10T08:59:23.710Z,13.48
2019-04-10T09:00:28.950Z,13.62
2019-04-10T09:01:33.527Z,12.70
2019-04-10T09:02:38.186Z,13.32
2019-04-10T09:03:43.308Z,13.53
2019-04-10T09:04:48.897Z,13.15
2019-04-10T09:05:53.192Z,14.18
2019-04-10T09:06:58.238Z,14.30
2019-04-10T09:08:03.109Z,13.75
2019-04-10T09:09:08.054Z,12.78
2019-04-10T09:10:12.372Z,12.37
2019-04-10T09:11:25.573Z,12.53
2019-04-10T09:12:22.365Z,13.10
2019-04-10T09:13:26.981Z,14.98
2019-04-10T09:14:30.913Z,14.50
2019-04-10T09:15:36.051Z,13.95
2019-04-10T09:16:40.176Z,12.50
2019-04-10T09:17:44.641Z,12.68
2019-04-10T09:18:49.491Z,12.00
2019-04-10T09:19:54.076Z,11.50
2019-04-10T09:20:59.318Z,11.73
2019-04-10T09:22:03.835Z,11.88
2019-04-10T09:23:18.677Z,12.65
2019-04-10T09:24:15.194Z,11.83
2019-04-10T09:25:19.690Z,11.97
2019-04-10T09:26:24.493Z,12.45
2019-04-10T09:27:28.976Z,11.55
2019-04-10T09:28:33.131Z,11.75
2019-04-10T09:29:38.262Z,12.23
2019-04-10T09:30:42.747Z,12.05
2019-04-10T09:31:48.114Z,11.40
2019-04-10T09:32:52.775Z,12.20
2019-04-10T09:33:57.079Z,12.05
2019-04-10T09:35:02.478Z,12.50
2019-04-10T09:36:06.908Z,12.45
2019-04-10T09:37:11.180Z,13.13
2019-04-10T09:38:16.677Z,11.73
2019-04-10T09:39:20.760Z,11.88
2019-04-10T09:40:25.027Z,12.45
2019-04-10T09:41:30.024Z,11.93
2019-04-10T09:42:33.870Z,12.70
2019-04-10T09:43:38.061Z,12.20
2019-04-10T09:44:42.314Z,12.35
2019-04-10T09:45:46.459Z,12.63
2019-04-10T09:46:51.682Z,11.97
2019-04-10T09:47:56.351Z,11.63
2019-04-10T09:49:00.622Z,12.30
2019-04-10T09:50:06.018Z,11.80
2019-04-10T09:51:09.945Z,11.93
2019-04-10T09:52:14.555Z,11.93
2019-04-10T09:53:19.060Z,10.48
2019-04-10T09:54:24.004Z,9.90
2019-04-10T09:55:28.164Z,10.43
2019-04-10T09:56:32.325Z,10.00
2019-04-10T09:57:36.890Z,11.28
2019-04-10T09:58:41.278Z,10.90
2019-04-10T09:59:46.064Z,13.85
2019-04-10T10:00:50.964Z,11.73
2019-04-10T10:01:55.399Z,11.28
2019-04-10T10:03:01.425Z,11.60
2019-04-10T10:04:05.539Z,11.35
2019-04-10T10:05:10.485Z,10.70
2019-04-10T10:06:25.251Z,10.80
2019-04-10T10:07:20.900Z,11.57
2019-04-10T10:08:25.361Z,10.32
2019-04-10T10:09:30.677Z,10.50
2019-04-10T10:10:36.765Z,11.18
2019-04-10T10:11:40.246Z,10.05
2019-04-10T10:12:44.986Z,10.98
2019-04-10T10:13:48.830Z,11.12
2019-04-10T10:14:53.881Z,12.30
2019-04-10T10:15:58.699Z,13.13
2019-04-10T10:17:04.263Z,11.73
2019-04-10T10:18:08.888Z,11.12
2019-04-10T10:19:14.194Z,11.95
2019-04-10T10:20:19.672Z,11.35
2019-04-10T10:21:24.144Z,11.45
2019-04-10T10:22:29.352Z,10.98
2019-04-10T10:23:33.958Z,10.03
2019-04-10T10:24:38.741Z,11.45
2019-04-10T10:25:43.696Z,8.98
2019-04-10T10:26:48.048Z,10.00
2019-04-10T10:27:52.034Z,10.15
2019-04-10T10:28:56.520Z,10.93
2019-04-10T10:30:02.092Z,11.20
2019-04-10T10:31:06.317Z,10.25
2019-04-10T10:32:10.926Z,11.08
2019-04-10T10:33:15.463Z,10.32
2019-04-10T10:34:20.630Z,9.23
2019-04-10T10:35:25.475Z,10.50
2019-04-10T10:36:36.707Z,9.00
2019-04-10T10:37:35.315Z,11.03
2019-04-10T10:38:39.640Z,10.60
2019-04-10T10:39:45.164Z,8.53
2019-04-10T10:40:49.430Z,10.65
2019-04-10T10:41:54.332Z,10.30
2019-04-10T10:42:58.614Z,10.80
2019-04-10T10:44:03.267Z,10.58
2019-04-10T10:45:07.809Z,11.25
2019-04-10T10:46:12.054Z,10.70
2019-04-10T10:47:16.055Z,11.33
2019-04-10T10:48:20.391Z,10.10
2019-04-10T10:49:24.408Z,11.25
2019-04-10T10:50:29.015Z,11.88
2019-04-10T10:51:33.223Z,10.60
2019-04-10T10:52:37.625Z,10.63
2019-04-10T10:53:41.933Z,9.53
2019-04-10T10:54:46.999Z,10.35
2019-04-10T10:55:51.189Z,10.43
2019-04-10T10:56:55.439Z,10.05
2019-04-10T10:57:59.690Z,10.10
2019-04-10T10:59:03.741Z,9.58
2019-04-10T11:00:12.814Z,10.20
2019-04-10T11:01:15.803Z,8.55
2019-04-10T11:02:21.250Z,10.18
2019-04-10T11:03:25.159Z,9.70
2019-04-10T11:04:29.678Z,10.68
2019-04-10T11:05:35.001Z,10.88
2019-04-10T11:06:52.580Z,11.03
2019-04-10T11:07:45.449Z,10.53
2019-04-10T11:08:49.634Z,10.28
2019-04-10T11:09:54.381Z,9.85
2019-04-10T11:10:59.379Z,9.60
2019-04-10T11:12:06.569Z,9.60
2019-04-10T11:13:10.955Z,10.53
2019-04-10T11:14:15.594Z,10.35
2019-04-10T11:15:20.157Z,10.48
2019-04-10T11:16:24.860Z,10.30
2019-04-10T11:17:29.711Z,9.90
2019-04-10T11:18:35.264Z,9.75
2019-04-10T11:19:39.862Z,9.48
2019-04-10T11:20:43.983Z,9.30
2019-04-10T11:21:49.525Z,9.58
2019-04-10T11:22:53.985Z,8.00
2019-04-10T11:23:58.425Z,10.40
2019-04-10T11:25:03.547Z,10.38
2019-04-10T11:26:08.438Z,9.63
2019-04-10T11:27:14.228Z,9.33
2019-04-10T11:28:20.594Z,10.25
2019-04-10T11:29:25.186Z,10.28
2019-04-10T11:30:29.557Z,10.55
2019-04-10T11:31:33.871Z,9.93
2019-04-10T11:32:38.318Z,8.70
2019-04-10T11:33:43.850Z,10.00
2019-04-10T11:34:49.337Z,10.10
2019-04-10T11:35:55.130Z,9.28
2019-04-10T11:37:16.620Z,8.58
2019-04-10T11:38:06.000Z,10.70
2019-04-10T11:40:18.042Z,10.63
2019-04-10T11:41:23.337Z,9.85
2019-04-10T11:42:28.969Z,10.28
2019-04-10T11:43:35.737Z,10.32
2019-04-10T11:44:41.725Z,10.65
2019-04-10T11:45:51.625Z,10.23
2019-04-10T11:46:52.688Z,9.75
2019-04-10T11:47:56.547Z,9.68
2019-04-10T11:49:00.981Z,9.80
2019-04-10T11:50:09.130Z,9.25
2019-04-10T11:51:13.262Z,8.48
2019-04-10T11:52:24.440Z,10.15
2019-04-10T11:53:24.019Z,9.28
2019-04-10T11:54:31.976Z,10.72
2019-04-10T11:56:40.228Z,9.73
2019-04-10T11:58:55.848Z,10.18
2019-04-10T11:59:57.699Z,10.43
2019-04-10T12:01:07.042Z,9.50
2019-04-10T12:02:10.076Z,9.53
2019-04-10T12:03:15.997Z,9.85
2019-04-10T12:04:20.744Z,12.15
2019-04-10T12:05:25.840Z,10.05
2019-04-10T12:06:32.985Z,9.80
2019-04-10T12:08:06.089Z,9.87
2019-04-10T12:09:12.213Z,9.90
2019-04-10T12:12:01.540Z,9.53
2019-04-10T12:13:06.029Z,9.50
2019-04-10T12:14:11.102Z,9.80
2019-04-10T12:15:17.136Z,9.60
2019-04-10T12:16:21.165Z,9.50
2019-04-10T12:17:25.631Z,10.20
2019-04-10T12:18:30.789Z,9.90
2019-04-10T12:19:36.166Z,9.97
2019-04-10T12:20:41.338Z,9.77
2019-04-10T12:21:47.385Z,10.03
2019-04-10T12:22:52.465Z,8.37
2019-04-10T12:23:56.951Z,10.77
2019-04-10T12:25:00.835Z,10.37
2019-04-10T12:26:05.168Z,9.93
2019-04-10T12:27:09.442Z,9.70
2019-04-10T12:28:13.812Z,10.03
2019-04-10T12:29:18.370Z,9.10
2019-04-10T12:30:23.525Z,10.07
2019-04-10T12:31:28.351Z,10.10
2019-04-10T12:32:32.602Z,9.97
2019-04-10T12:33:38.005Z,9.57
2019-04-10T12:34:42.485Z,10.07
2019-04-10T12:35:47.744Z,11.20
2019-04-10T12:36:53.321Z,10.27
2019-04-10T12:38:02.843Z,10.13
2019-04-10T12:39:05.966Z,10.90
2019-04-10T12:40:11.837Z,10.20
2019-04-10T12:41:15.718Z,10.17
2019-04-10T12:42:19.999Z,10.27
2019-04-10T12:43:25.783Z,10.57
2019-04-10T12:44:30.470Z,9.90
2019-04-10T12:45:36.048Z,9.60
2019-04-10T12:46:41.421Z,9.90
2019-04-10T12:47:46.033Z,10.13
2019-04-10T12:48:50.684Z,10.27
2019-04-10T12:49:54.646Z,10.33
2019-04-10T12:50:58.567Z,10.33
2019-04-10T12:52:02.526Z,10.87
2019-04-10T12:53:07.408Z,10.60
2019-04-10T12:54:12.188Z,11.17
2019-04-10T12:55:16.497Z,10.93
2019-04-10T12:56:20.619Z,10.07
2019-04-10T12:57:24.985Z,10.50
2019-04-10T12:58:29.236Z,10.93
2019-04-10T12:59:33.436Z,10.83
2019-04-10T13:00:38.148Z,10.13
2019-04-10T13:01:42.268Z,10.60
2019-04-10T13:02:47.026Z,9.73
2019-04-10T13:03:51.601Z,11.20
2019-04-10T13:04:56.619Z,10.80
2019-04-10T13:06:01.871Z,11.60
2019-04-10T13:07:07.376Z,12.57
2019-04-10T13:08:20.463Z,11.67
2019-04-10T13:09:17.934Z,11.00
2019-04-10T13:10:22.965Z,12.73
2019-04-10T13:11:27.067Z,11.53
2019-04-10T13:12:31.330Z,11.30
2019-04-10T13:13:35.843Z,13.37
2019-04-10T13:14:39.931Z,14.50
2019-04-10T13:15:45.578Z,14.63
2019-04-10T13:16:50.181Z,11.63
2019-04-10T13:17:54.071Z,14.20
2019-04-10T13:18:58.653Z,13.87
2019-04-10T13:20:03.019Z,14.93
2019-04-10T13:21:08.415Z,13.27
2019-04-10T13:22:12.810Z,12.03
2019-04-10T13:23:17.812Z,12.33
2019-04-10T13:24:22.314Z,14.63
2019-04-10T13:25:26.741Z,14.90
2019-04-10T13:26:30.932Z,13.67
2019-04-10T13:27:35.289Z,11.40
2019-04-10T13:28:40.121Z,14.53
2019-04-10T13:29:44.646Z,13.83
2019-04-10T13:30:53.097Z,13.17
2019-04-10T13:31:55.849Z,12.17
2019-04-10T13:33:00.434Z,15.10
2019-04-10T13:34:04.948Z,13.87
2019-04-10T13:35:10.363Z,14.47
2019-04-10T13:36:15.452Z,15.07
2019-04-10T13:37:19.963Z,14.10
2019-04-10T13:38:29.251Z,11.90
2019-04-10T13:39:30.777Z,12.03
2019-04-10T13:40:36.078Z,12.53
2019-04-10T13:41:40.767Z,14.07
2019-04-10T13:42:45.444Z,12.83
2019-04-10T13:43:49.987Z,13.20
2019-04-10T13:44:55.757Z,12.87
2019-04-10T13:46:00.499Z,15.70
2019-04-10T13:47:05.110Z,13.67
2019-04-10T13:48:10.205Z,16.33
2019-04-10T13:49:14.404Z,13.83
2019-04-10T13:50:19.065Z,12.80
2019-04-10T13:51:23.473Z,13.97
2019-04-10T13:52:27.912Z,13.20
2019-04-10T13:53:32.245Z,15.93
2019-04-10T13:54:36.872Z,15.00
2019-04-10T13:55:40.680Z,13.47
2019-04-10T13:56:45.377Z,14.87
2019-04-10T13:57:50.859Z,14.10
2019-04-10T13:58:55.004Z,13.33
2019-04-10T13:59:59.558Z,15.00
2019-04-10T14:01:05.617Z,15.60
2019-04-10T14:02:13.174Z,16.07
2019-04-10T14:03:19.195Z,16.33
2019-04-10T14:04:23.212Z,16.67
2019-04-10T14:05:27.891Z,16.27
2019-04-10T14:06:32.048Z,17.57
2019-04-10T14:07:36.149Z,14.30
2019-04-10T14:08:58.454Z,14.13
2019-04-10T14:09:50.163Z,13.90
2019-04-10T14:10:52.936Z,13.67
2019-04-10T14:11:57.819Z,12.70
2019-04-10T14:13:03.236Z,12.97
2019-04-10T14:14:08.536Z,13.07
2019-04-10T14:15:13.919Z,14.93
2019-04-10T14:16:17.915Z,15.03
2019-04-10T14:17:22.215Z,13.63
2019-04-10T14:18:26.473Z,12.63
2019-04-10T14:19:31.867Z,12.77
2019-04-10T14:20:36.172Z,11.83
2019-04-10T14:21:42.708Z,11.50
2019-04-10T14:23:08.562Z,12.47
2019-04-10T14:24:13.078Z,12.40
2019-04-10T14:25:28.150Z,12.33
2019-04-10T14:26:48.122Z,12.07
2019-04-10T14:27:46.670Z,12.07
2019-04-10T14:28:51.444Z,12.10
2019-04-10T14:29:56.762Z,12.27
2019-04-10T14:31:04.238Z,12.83
2019-04-10T14:32:11.306Z,11.97
2019-04-10T14:33:16.029Z,11.93
2019-04-10T14:34:21.451Z,12.53
2019-04-10T14:35:25.348Z,12.43
2019-04-10T14:36:29.802Z,12.73
2019-04-10T14:37:33.927Z,12.40
2019-04-10T14:38:39.029Z,11.73
2019-04-10T14:40:49.382Z,12.20
2019-04-10T14:41:54.018Z,11.87
2019-04-10T14:42:57.956Z,12.27
2019-04-10T14:44:01.984Z,12.00
2019-04-10T14:45:06.981Z,12.47
2019-04-10T14:46:12.490Z,12.57
2019-04-10T14:47:17.431Z,12.80
2019-04-10T14:48:22.392Z,12.60
2019-04-10T14:49:27.244Z,12.70
2019-04-10T14:50:32.207Z,12.60
2019-04-10T14:51:36.644Z,13.30
2019-04-10T14:52:41.146Z,13.33
2019-04-10T14:53:45.200Z,12.60
2019-04-10T14:54:50.291Z,13.10
2019-04-10T14:55:54.915Z,12.60
2019-04-10T14:56:59.071Z,12.93
2019-04-10T14:58:03.460Z,12.77
2019-04-10T14:59:07.577Z,13.13
2019-04-10T15:00:20.014Z,15.00
2019-04-10T15:01:24.297Z,13.27
2019-04-10T15:02:28.598Z,12.60
2019-04-10T15:03:32.862Z,12.40
2019-04-10T15:04:37.406Z,12.70
2019-04-10T15:05:48.650Z,13.33
2019-04-10T15:06:48.037Z,12.93
2019-04-10T15:07:53.287Z,12.57
2019-04-10T15:08:57.767Z,12.40
2019-04-10T15:10:02.461Z,13.20
2019-04-10T15:11:06.781Z,13.00
2019-04-10T15:12:12.193Z,12.33
2019-04-10T15:13:20.783Z,13.10
2019-04-10T15:14:23.433Z,13.93
2019-04-10T15:15:28.183Z,12.73
2019-04-10T15:16:33.547Z,13.63
2019-04-10T15:17:38.091Z,12.70
2019-04-10T15:18:42.032Z,15.03
2019-04-10T15:19:46.905Z,14.73
2019-04-10T15:20:52.319Z,13.43
2019-04-10T15:21:56.439Z,14.07
2019-04-10T15:23:01.037Z,13.63
2019-04-10T15:24:05.042Z,13.23
2019-04-10T15:25:09.042Z,14.33
2019-04-10T15:26:13.709Z,13.67
2019-04-10T15:27:18.055Z,15.47
2019-04-10T15:28:23.250Z,14.77
2019-04-10T15:29:28.103Z,20.03
2019-04-10T15:30:32.832Z,17.07
2019-04-10T15:31:37.706Z,20.43
2019-04-10T15:32:42.223Z,28.47
2019-04-10T15:33:46.734Z,19.30
2019-04-10T15:34:51.561Z,14.80
2019-04-10T15:35:55.764Z,18.13
2019-04-10T15:37:00.506Z,14.67
2019-04-10T15:38:06.156Z,15.50
2019-04-10T15:39:10.658Z,14.20
2019-04-10T15:40:20.836Z,15.47
2019-04-10T15:41:21.296Z,14.57
2019-04-10T15:42:25.952Z,13.93
2019-04-10T15:43:30.219Z,14.40
2019-04-10T15:44:34.463Z,15.53
2019-04-10T15:45:38.496Z,16.77
2019-04-10T15:46:43.499Z,20.37
2019-04-10T15:47:52.511Z,14.47
2019-04-10T15:48:55.010Z,14.90
2019-04-10T15:49:59.863Z,15.57
2019-04-10T15:51:04.214Z,15.60
2019-04-10T15:52:08.135Z,15.23
2019-04-10T15:53:12.847Z,15.23
2019-04-10T15:54:18.047Z,17.57
2019-04-10T15:55:22.131Z,19.67
2019-04-10T15:56:27.651Z,16.80
2019-04-10T15:57:44.248Z,17.10
2019-04-10T15:58:37.430Z,16.07
2019-04-10T15:59:41.387Z,16.53
2019-04-10T16:00:45.795Z,16.57
2019-04-10T16:01:51.065Z,18.30
2019-04-10T16:02:55.366Z,17.00
2019-04-10T16:04:01.137Z,17.60
2019-04-10T16:05:07.081Z,16.57
2019-04-10T16:06:11.360Z,15.97
2019-04-10T16:07:16.116Z,15.67
2019-04-10T16:08:20.507Z,17.93
2019-04-10T16:09:25.322Z,16.27
2019-04-10T16:10:51.536Z,16.57
2019-04-10T16:12:00.587Z,17.30
2019-04-10T16:13:14.522Z,17.70
2019-04-10T16:14:23.228Z,17.77